Time;durP1;ratioP1;P1;durP2;ratioP2;P2;SDS_P1;SDS_P2;PMS_P1;PMS_P2;Temp;Humidity;BMP_temperature;BMP_pressure;BME280_temperature;BME280_humidity;BME280_pressure;Samples;Min_cycle;Max_cycle;Signal;HPM_P1;HPM_P2
2023/01/15 00:01:23;;;;;;;2.80;2.10;;;3.30;99.90;;;;;;5038787;28;20466;-50
2023/01/15 00:03:50;;;;;;;2.23;1.97;;;3.50;99.90;;;;;;5037566;28;20430;-48
2023/01/15 00:06:17;;;;;;;2.03;1.77;;;3.70;99.90;;;;;;5036233;28;20521;-49
2023/01/15 00:08:45;;;;;;;2.20;1.87;;;4.00;99.90;;;;;;5040993;28;20466;-50
2023/01/15 00:11:12;;;;;;;2.97;2.60;;;4.00;99.90;;;;;;5040093;28;20495;-49
2023/01/15 00:13:39;;;;;;;2.97;1.90;;;3.90;99.90;;;;;;5038351;28;20444;-50
2023/01/15 00:16:06;;;;;;;3.43;2.03;;;3.70;99.90;;;;;;5036899;28;20533;-49
2023/01/15 00:18:35;;;;;;;2.50;2.30;;;3.50;99.90;;;;;;5046341;28;20442;-52
2023/01/15 00:21:04;;;;;;;2.90;2.70;;;3.60;99.90;;;;;;5044478;28;20902;-51
2023/01/15 00:29:01;;;;;;;2.03;1.47;;;3.80;99.90;;;;;;5046617;28;20441;-47
2023/01/15 00:31:29;;;;;;;2.10;1.53;;;4.40;99.90;;;;;;5035246;28;20564;-49
2023/01/15 00:33:57;;;;;;;2.07;1.87;;;4.60;99.90;;;;;;5030789;28;20449;-51
2023/01/15 00:36:24;;;;;;;2.40;1.73;;;4.70;99.90;;;;;;5039148;28;20472;-49
2023/01/15 00:38:51;;;;;;;2.73;1.60;;;4.40;99.90;;;;;;5031134;28;20448;-50
2023/01/15 00:41:18;;;;;;;3.23;2.10;;;4.00;99.90;;;;;;5038333;28;20466;-48
2023/01/15 00:43:45;;;;;;;3.10;1.70;;;4.00;99.90;;;;;;5047138;28;20479;-50
2023/01/15 00:46:13;;;;;;;3.73;1.67;;;4.30;99.90;;;;;;5047223;28;21000;-49
2023/01/15 00:48:40;;;;;;;2.30;1.37;;;4.40;99.90;;;;;;5050856;28;20529;-50
2023/01/15 00:51:08;;;;;;;1.90;1.47;;;4.60;99.90;;;;;;5055803;28;20538;-49
2023/01/15 00:53:35;;;;;;;3.47;1.57;;;4.60;99.90;;;;;;5066480;28;20552;-49
2023/01/15 00:56:02;;;;;;;2.10;1.23;;;4.70;99.90;;;;;;5067683;28;20529;-49
2023/01/15 00:58:29;;;;;;;1.40;1.13;;;4.70;99.90;;;;;;5065928;28;20544;-49
2023/01/15 01:00:56;;;;;;;2.20;1.10;;;4.70;99.90;;;;;;5064769;28;20546;-50
2023/01/15 01:03:24;;;;;;;1.60;1.10;;;4.70;99.90;;;;;;5069102;28;20963;-52
2023/01/15 01:05:51;;;;;;;1.50;1.17;;;5.30;99.90;;;;;;5054035;28;20532;-49
2023/01/15 01:08:20;;;;;;;2.20;1.17;;;5.20;99.90;;;;;;5066813;28;20529;-49
2023/01/15 01:10:46;;;;;;;1.47;1.00;;;5.00;99.90;;;;;;5056077;28;20492;-49
2023/01/15 01:13:13;;;;;;;1.20;1.03;;;4.90;99.90;;;;;;5051114;28;20523;-49
2023/01/15 01:15:40;;;;;;;2.00;1.20;;;5.70;99.90;;;;;;5051337;28;20491;-49
2023/01/15 01:18:07;;;;;;;2.20;1.40;;;5.80;99.90;;;;;;5061849;28;20539;-50
2023/01/15 01:20:34;;;;;;;1.10;0.90;;;5.80;99.90;;;;;;5062192;28;20461;-49
2023/01/15 01:23:01;;;;;;;1.40;1.07;;;5.60;99.90;;;;;;5069124;28;20533;-49
2023/01/15 01:25:29;;;;;;;1.97;1.10;;;5.80;99.90;;;;;;5068610;28;20538;-49
2023/01/15 01:27:56;;;;;;;4.10;1.20;;;6.10;99.90;;;;;;5053402;28;20884;-49
2023/01/15 01:30:23;;;;;;;1.50;1.20;;;5.80;99.90;;;;;;5058988;28;20557;-49
2023/01/15 01:32:50;;;;;;;1.17;0.83;;;5.50;99.90;;;;;;5065575;28;20548;-52
2023/01/15 01:35:17;;;;;;;1.10;0.80;;;6.10;99.90;;;;;;5065120;28;20502;-50
2023/01/15 01:37:48;;;;;;;1.00;0.77;;;6.10;99.90;;;;;;5055269;28;20467;-49
2023/01/15 01:40:15;;;;;;;1.70;0.80;;;5.90;99.90;;;;;;5050035;28;20547;-49
2023/01/15 01:42:44;;;;;;;1.20;0.80;;;6.10;99.90;;;;;;5050589;28;20718;-49
2023/01/15 01:45:23;;;;;;;1.73;1.00;;;6.10;99.90;;;;;;5057594;28;20442;-52
2023/01/15 01:47:51;;;;;;;1.07;0.87;;;6.30;99.90;;;;;;5049094;28;20528;-49
2023/01/15 01:50:19;;;;;;;2.43;0.90;;;6.20;99.90;;;;;;5066131;28;20496;-49
2023/01/15 01:52:53;;;;;;;1.60;0.77;;;6.20;99.90;;;;;;5071087;28;20507;-50
2023/01/15 01:55:23;;;;;;;1.50;1.00;;;6.40;99.90;;;;;;5071011;28;20474;-49
2023/01/15 01:57:53;;;;;;;2.00;0.90;;;6.60;99.90;;;;;;5069775;28;20571;-49
2023/01/15 02:00:22;;;;;;;1.30;0.60;;;6.60;99.90;;;;;;5070080;28;20530;-49
2023/01/15 02:02:49;;;;;;;1.30;0.80;;;6.60;99.90;;;;;;5055410;28;20533;-49
2023/01/15 02:05:26;;;;;;;1.03;0.70;;;6.90;99.90;;;;;;5066920;28;20443;-49
2023/01/15 02:07:53;;;;;;;1.10;0.90;;;6.40;99.90;;;;;;5067817;28;20571;-50
2023/01/15 02:10:20;;;;;;;1.57;0.90;;;6.40;99.90;;;;;;5058224;28;20577;-51
2023/01/15 02:12:55;;;;;;;2.90;0.80;;;6.20;99.90;;;;;;5049675;28;20516;-49
2023/01/15 02:15:28;;;;;;;1.20;1.00;;;6.10;99.90;;;;;;5048151;28;20495;-49
2023/01/15 02:18:01;;;;;;;1.20;0.53;;;6.60;99.90;;;;;;5056597;28;20475;-51
2023/01/15 02:20:32;;;;;;;1.93;1.20;;;6.60;99.90;;;;;;5050957;28;20974;-49
2023/01/15 02:23:37;;;;;;;1.27;0.80;;;6.50;99.90;;;;;;5050499;28;20440;-51
2023/01/15 02:26:27;;;;;;;1.57;1.07;;;6.20;99.90;;;;;;4990282;28;20501;-49
2023/01/15 02:28:59;;;;;;;1.93;0.90;;;6.50;99.90;;;;;;5046833;28;20540;-49
2023/01/15 02:31:29;;;;;;;1.20;0.60;;;6.40;99.90;;;;;;5052056;28;20476;-49
2023/01/15 02:34:00;;;;;;;1.40;1.00;;;6.20;99.90;;;;;;5057628;28;20560;-49
2023/01/15 02:36:31;;;;;;;1.00;0.70;;;6.00;99.90;;;;;;5050901;28;20460;-49
2023/01/15 02:39:02;;;;;;;1.53;1.00;;;6.20;99.90;;;;;;5053021;28;20465;-49
2023/01/15 02:41:36;;;;;;;1.30;0.90;;;6.30;99.90;;;;;;5050405;28;20528;-49
2023/01/15 02:44:07;;;;;;;1.00;0.70;;;6.50;99.90;;;;;;5066282;28;20849;-49
2023/01/15 02:46:37;;;;;;;1.13;0.73;;;6.30;99.90;;;;;;5070996;28;20520;-50
2023/01/15 02:49:08;;;;;;;2.80;0.80;;;6.10;99.90;;;;;;5063018;28;20543;-50
2023/01/15 02:51:39;;;;;;;1.77;0.80;;;6.00;99.90;;;;;;5059807;28;20532;-50
2023/01/15 02:54:12;;;;;;;1.20;0.90;;;5.80;99.90;;;;;;5048585;28;20914;-49
2023/01/15 02:56:41;;;;;;;1.20;0.70;;;5.80;99.90;;;;;;5049243;28;20833;-49
2023/01/15 02:59:15;;;;;;;3.27;0.97;;;5.70;99.90;;;;;;5050244;28;20478;-50
2023/01/15 03:01:45;;;;;;;1.43;0.93;;;5.80;99.90;;;;;;5050666;28;20530;-49
2023/01/15 03:04:19;;;;;;;1.07;0.87;;;5.90;99.90;;;;;;5049858;28;20468;-50
2023/01/15 03:06:50;;;;;;;3.00;0.90;;;5.90;99.90;;;;;;5060304;28;20475;-49
2023/01/15 03:09:18;;;;;;;1.03;0.60;;;5.90;99.90;;;;;;5072766;28;21032;-49
2023/01/15 03:11:49;;;;;;;1.57;0.93;;;6.10;99.90;;;;;;5070782;28;20502;-49
2023/01/15 03:14:23;;;;;;;2.20;1.13;;;6.00;99.90;;;;;;5070319;28;20508;-49
2023/01/15 03:16:54;;;;;;;1.10;0.90;;;5.70;99.90;;;;;;5072126;28;20531;-51
2023/01/15 03:19:27;;;;;;;8.37;1.30;;;5.30;99.90;;;;;;5072228;28;20490;-49
2023/01/15 03:21:58;;;;;;;1.10;0.60;;;5.70;99.90;;;;;;5072737;28;20470;-49
2023/01/15 03:24:30;;;;;;;1.60;0.93;;;5.70;99.90;;;;;;5071774;28;20483;-49
2023/01/15 03:26:57;;;;;;;1.30;0.73;;;5.90;99.90;;;;;;5071860;28;20522;-50
2023/01/15 03:29:28;;;;;;;1.83;0.73;;;5.90;99.90;;;;;;5071806;28;20567;-49
2023/01/15 03:31:55;;;;;;;1.30;0.87;;;5.80;99.90;;;;;;5073144;28;20490;-51
2023/01/15 03:34:24;;;;;;;1.50;0.80;;;5.90;99.90;;;;;;5072980;28;20932;-48
2023/01/15 03:36:51;;;;;;;1.20;0.87;;;5.90;99.90;;;;;;5074027;28;20535;-51
2023/01/15 03:39:18;;;;;;;1.40;1.00;;;5.70;99.90;;;;;;5072435;28;20549;-49
2023/01/15 03:41:56;;;;;;;1.00;0.80;;;5.50;99.90;;;;;;5067564;28;20975;-49
2023/01/15 03:44:32;;;;;;;1.93;1.30;;;5.10;99.90;;;;;;5071469;28;20531;-48
2023/01/15 03:47:17;;;;;;;1.80;1.20;;;4.80;99.90;;;;;;5071124;28;20442;-48
2023/01/15 03:49:53;;;;;;;2.50;1.70;;;4.50;99.90;;;;;;5066435;28;20921;-47
2023/01/15 03:52:26;;;;;;;2.70;1.63;;;4.50;99.90;;;;;;5052290;28;20470;-47
2023/01/15 03:55:00;;;;;;;1.50;1.30;;;4.70;99.90;;;;;;5051757;28;21006;-50
2023/01/15 03:57:34;;;;;;;1.83;1.33;;;5.00;99.90;;;;;;5053330;28;20474;-48
2023/01/15 04:00:09;;;;;;;1.90;1.70;;;4.70;99.90;;;;;;5060994;28;21030;-48
2023/01/15 04:02:37;;;;;;;1.90;1.50;;;4.20;99.90;;;;;;5073027;28;20528;-48
2023/01/15 04:05:05;;;;;;;2.03;1.83;;;4.00;99.90;;;;;;5071097;28;20528;-49
2023/01/15 04:07:32;;;;;;;1.70;0.90;;;4.20;99.90;;;;;;5071605;28;20474;-47
2023/01/15 04:09:59;;;;;;;1.10;0.87;;;4.60;99.90;;;;;;5070980;28;20488;-50
2023/01/15 04:12:27;;;;;;;1.20;0.80;;;4.80;99.90;;;;;;5071799;28;20531;-48
2023/01/15 04:14:54;;;;;;;2.43;1.30;;;4.80;99.90;;;;;;5070959;28;20880;-48
2023/01/15 04:17:22;;;;;;;2.03;1.60;;;4.70;99.90;;;;;;5071667;28;20522;-48
2023/01/15 04:19:50;;;;;;;2.00;1.67;;;4.50;99.90;;;;;;5067567;28;20497;-48
2023/01/15 04:22:17;;;;;;;2.00;1.30;;;4.20;99.90;;;;;;5052855;28;20452;-47
2023/01/15 04:24:44;;;;;;;1.90;1.47;;;4.20;99.90;;;;;;5051738;28;20521;-49
2023/01/15 04:27:11;;;;;;;1.80;1.10;;;4.40;99.90;;;;;;5049817;28;20481;-48
2023/01/15 04:29:38;;;;;;;2.13;1.20;;;4.70;99.90;;;;;;5054327;28;20567;-49
2023/01/15 04:32:05;;;;;;;1.60;1.07;;;4.80;99.90;;;;;;5054652;28;20479;-48
2023/01/15 04:34:35;;;;;;;1.67;0.87;;;4.90;99.90;;;;;;5050734;28;20523;-48
2023/01/15 04:37:02;;;;;;;2.67;1.90;;;4.90;99.90;;;;;;5051315;28;20447;-48
2023/01/15 04:39:29;;;;;;;2.40;1.40;;;5.00;99.90;;;;;;5067945;28;21007;-48
2023/01/15 04:44:39;;;;;;;1.50;1.30;;;4.70;99.90;;;;;;5071598;28;20955;-48
2023/01/15 04:47:07;;;;;;;1.33;1.03;;;4.60;99.90;;;;;;5070991;28;20532;-48
2023/01/15 04:49:35;;;;;;;2.20;1.10;;;4.60;99.90;;;;;;5071989;28;20745;-48
2023/01/15 04:52:03;;;;;;;1.67;1.33;;;4.50;99.90;;;;;;5071883;28;20436;-49
2023/01/15 04:54:30;;;;;;;2.77;1.30;;;4.50;99.90;;;;;;5071418;28;20511;-48
2023/01/15 04:56:57;;;;;;;1.60;1.20;;;4.60;99.90;;;;;;5071918;28;20535;-48
2023/01/15 04:59:26;;;;;;;1.50;0.90;;;4.90;99.90;;;;;;5070547;28;20547;-48
2023/01/15 05:01:53;;;;;;;1.40;1.07;;;5.20;99.90;;;;;;5071072;28;20471;-48
2023/01/15 05:04:20;;;;;;;1.73;1.40;;;5.40;99.90;;;;;;5070444;28;20472;-48
2023/01/15 05:06:48;;;;;;;1.80;1.40;;;5.40;99.90;;;;;;5070150;28;20518;-48
2023/01/15 05:09:16;;;;;;;2.40;1.50;;;5.10;99.90;;;;;;5069282;28;20535;-48
2023/01/15 05:11:43;;;;;;;4.43;2.77;;;4.90;99.90;;;;;;5069952;28;20477;-48
2023/01/15 05:14:09;;;;;;;4.03;2.70;;;4.90;99.90;;;;;;5069054;28;20513;-49
2023/01/15 05:16:37;;;;;;;3.90;2.40;;;4.90;99.90;;;;;;5070018;28;20459;-48
2023/01/15 05:19:06;;;;;;;2.40;1.47;;;4.50;99.90;;;;;;5069446;28;20495;-48
2023/01/15 05:21:36;;;;;;;1.80;1.70;;;4.60;99.90;;;;;;5070509;28;20440;-48
2023/01/15 05:24:07;;;;;;;2.47;2.00;;;4.60;99.90;;;;;;5069033;28;20523;-49
2023/01/15 05:26:35;;;;;;;1.90;1.70;;;4.60;99.90;;;;;;5070768;28;20883;-50
2023/01/15 05:29:03;;;;;;;2.17;1.80;;;4.60;99.90;;;;;;5070999;28;20481;-48
2023/01/15 05:31:32;;;;;;;3.53;1.90;;;4.70;99.90;;;;;;5071453;28;20522;-48
2023/01/15 05:33:59;;;;;;;4.47;2.60;;;4.50;99.90;;;;;;5069034;28;20476;-48
2023/01/15 05:36:28;;;;;;;2.80;1.80;;;4.30;99.90;;;;;;5067737;28;20520;-48
2023/01/15 05:38:56;;;;;;;5.17;3.57;;;4.20;99.90;;;;;;5067928;28;20609;-49
2023/01/15 05:44:11;;;;;;;2.40;2.13;;;4.60;99.90;;;;;;5067294;28;20948;-48
2023/01/15 05:46:39;;;;;;;1.63;1.37;;;4.50;99.90;;;;;;5066750;28;20494;-47
2023/01/15 05:51:36;;;;;;;2.70;2.50;;;4.80;99.90;;;;;;5093603;22;20492;-82
2023/01/15 05:54:04;;;;;;;16.73;4.97;;;4.50;99.90;;;;;;5072557;28;20480;-82
2023/01/15 05:56:34;;;;;;;2.60;2.40;;;4.30;99.90;;;;;;5077167;28;20495;-82
2023/01/15 05:59:05;;;;;;;4.03;2.77;;;4.00;99.90;;;;;;5076032;28;20505;-83
2023/01/15 06:01:32;;;;;;;3.93;2.53;;;3.80;99.90;;;;;;5072940;28;20440;-82
2023/01/15 06:04:00;;;;;;;2.10;1.77;;;4.00;99.90;;;;;;5085031;28;20474;-84
2023/01/15 06:06:28;;;;;;;1.90;1.60;;;4.20;99.90;;;;;;5080707;28;20437;-82
2023/01/15 06:08:55;;;;;;;1.80;1.30;;;4.50;99.90;;;;;;5075322;28;20476;-81
2023/01/15 06:11:22;;;;;;;1.67;1.30;;;4.70;99.90;;;;;;5073638;28;20462;-83
2023/01/15 06:13:51;;;;;;;3.40;3.10;;;4.60;99.90;;;;;;5073239;28;20475;-83
2023/01/15 06:16:18;;;;;;;6.50;4.70;;;4.50;99.90;;;;;;5071080;28;20479;-82
2023/01/15 06:18:45;;;;;;;8.30;6.10;;;4.40;99.90;;;;;;5074952;28;21214;-82
2023/01/15 06:21:14;;;;;;;3.90;2.87;;;4.20;99.90;;;;;;5076998;28;20491;-82
2023/01/15 06:23:42;;;;;;;4.10;3.00;;;4.30;99.90;;;;;;5078386;28;20851;-81
2023/01/15 06:26:11;;;;;;;4.13;3.03;;;4.40;99.90;;;;;;5079748;28;20455;-82
2023/01/15 06:28:38;;;;;;;3.50;3.20;;;4.50;99.90;;;;;;5074906;28;20443;-81
2023/01/15 06:31:08;;;;;;;4.30;2.60;;;4.50;99.90;;;;;;5073229;28;20516;-85
2023/01/15 06:33:35;;;;;;;5.70;4.20;;;4.70;99.90;;;;;;5077796;28;20508;-80
2023/01/15 06:36:09;;;;;;;3.57;2.60;;;4.70;99.90;;;;;;5078653;28;20445;-81
2023/01/15 06:38:37;;;;;;;3.23;2.93;;;4.60;99.90;;;;;;5079736;28;20432;-82
2023/01/15 06:47:19;;;;;;;7.80;3.70;;;4.70;99.90;;;;;;5074834;28;20814;-81
2023/01/15 06:49:17;;;;;;;3.07;2.77;;;3.70;99.90;;;;;;5064834;28;20474;-47
2023/01/15 06:51:44;;;;;;;4.40;2.53;;;4.10;99.90;;;;;;5070078;28;20521;-49
2023/01/15 06:54:11;;;;;;;2.47;2.27;;;4.20;99.90;;;;;;5072215;28;20497;-49
2023/01/15 06:59:08;;;;;;;4.20;3.70;;;4.10;99.90;;;;;;5068962;28;20466;-53
2023/01/15 07:01:36;;;;;;;4.87;3.70;;;4.00;99.90;;;;;;5072797;28;20524;-50
2023/01/15 07:04:03;;;;;;;5.73;3.60;;;4.00;99.90;;;;;;5072698;28;20467;-51
2023/01/15 07:06:31;;;;;;;3.10;2.70;;;4.10;99.90;;;;;;5073234;28;20530;-53
2023/01/15 07:08:58;;;;;;;7.80;3.73;;;4.20;99.90;;;;;;5070411;28;20520;-51
2023/01/15 07:11:24;;;;;;;4.67;4.00;;;4.30;99.90;;;;;;5072646;28;20466;-51
2023/01/15 07:14:04;;;;;;;3.87;3.20;;;4.20;99.90;;;;;;5072336;28;20513;-51
2023/01/15 07:16:31;;;;;;;3.20;2.80;;;4.30;99.90;;;;;;5071585;28;20450;-51
2023/01/15 07:18:59;;;;;;;6.77;4.00;;;4.20;99.90;;;;;;5070282;28;20491;-51
2023/01/15 07:21:26;;;;;;;7.33;5.37;;;4.30;99.90;;;;;;5073084;28;20515;-51
2023/01/15 07:23:54;;;;;;;5.17;4.50;;;4.20;99.90;;;;;;5071575;28;20855;-53
2023/01/15 07:26:21;;;;;;;3.90;2.30;;;4.10;99.90;;;;;;5072777;28;20538;-51
2023/01/15 07:28:47;;;;;;;2.37;2.00;;;4.30;99.90;;;;;;5072725;28;20494;-52
2023/01/15 07:31:14;;;;;;;2.73;2.53;;;4.50;99.90;;;;;;5065054;28;21028;-52
2023/01/15 07:33:41;;;;;;;4.90;4.40;;;4.50;99.90;;;;;;5063558;28;20508;-51
2023/01/15 07:36:10;;;;;;;6.93;5.20;;;4.50;99.90;;;;;;5064887;28;20533;-52
2023/01/15 07:38:38;;;;;;;8.00;5.70;;;4.30;99.90;;;;;;5062427;28;21090;-51
2023/01/15 07:52:04;;;;;;;4.07;3.37;;;4.30;99.90;;;;;;5064441;28;20427;-51
2023/01/15 07:54:31;;;;;;;4.53;4.00;;;4.40;99.90;;;;;;5062594;28;20919;-52
2023/01/15 07:56:58;;;;;;;3.00;2.70;;;4.50;99.90;;;;;;5064462;28;20924;-51
2023/01/15 07:59:25;;;;;;;3.73;2.30;;;4.60;99.90;;;;;;5065439;28;20482;-50
2023/01/15 08:01:52;;;;;;;3.33;3.00;;;4.70;99.90;;;;;;5061565;28;20437;-51
2023/01/15 08:04:19;;;;;;;9.00;4.10;;;4.70;99.90;;;;;;5065612;28;20458;-51
2023/01/15 08:06:46;;;;;;;4.30;3.67;;;4.80;99.90;;;;;;5063412;28;20475;-51
2023/01/15 08:09:14;;;;;;;6.40;3.90;;;4.60;99.90;;;;;;5069042;28;20534;-53
2023/01/15 08:17:15;;;;;;;5.67;4.00;;;4.60;99.90;;;;;;5054938;28;20816;-52
2023/01/15 08:19:42;;;;;;;5.00;4.27;;;4.60;99.90;;;;;;5071434;28;20507;-51
2023/01/15 08:22:10;;;;;;;4.90;3.87;;;4.70;99.90;;;;;;5067361;28;20471;-53
2023/01/15 08:24:38;;;;;;;4.70;4.30;;;4.70;99.90;;;;;;5063218;28;20523;-51
2023/01/15 08:27:06;;;;;;;6.93;5.07;;;4.80;99.90;;;;;;5063410;28;20887;-52
2023/01/15 08:29:33;;;;;;;7.37;4.20;;;4.80;99.90;;;;;;5060244;28;20518;-51
2023/01/15 08:32:00;;;;;;;4.87;3.80;;;4.80;99.90;;;;;;5061090;28;20512;-52
2023/01/15 08:34:27;;;;;;;5.90;4.10;;;4.90;99.90;;;;;;5058251;28;21052;-51
2023/01/15 08:36:58;;;;;;;9.50;6.73;;;5.00;99.90;;;;;;5061833;28;20460;-53
2023/01/15 08:39:26;;;;;;;9.60;8.40;;;4.90;99.90;;;;;;5064300;28;20449;-51
2023/01/15 08:41:54;;;;;;;9.33;7.77;;;4.80;99.90;;;;;;5064019;28;20453;-51
2023/01/15 08:44:22;;;;;;;7.83;7.13;;;4.90;99.90;;;;;;5060846;28;20959;-52
2023/01/15 08:46:50;;;;;;;8.80;7.90;;;5.00;99.90;;;;;;5061011;28;20868;-51
2023/01/15 08:49:18;;;;;;;5.80;5.27;;;5.10;99.90;;;;;;5060517;28;20476;-52
2023/01/15 08:51:48;;;;;;;8.63;7.70;;;5.10;99.90;;;;;;5061939;28;20488;-51
2023/01/15 08:54:16;;;;;;;13.00;9.70;;;5.10;99.90;;;;;;5059861;28;21067;-51
2023/01/15 08:56:43;;;;;;;13.00;10.60;;;5.10;99.90;;;;;;5062035;28;20521;-53
2023/01/15 08:59:12;;;;;;;10.40;9.30;;;5.00;99.90;;;;;;5065951;28;20447;-51
2023/01/15 09:01:39;;;;;;;9.00;7.83;;;5.00;99.90;;;;;;5062166;28;20528;-52
2023/01/15 09:04:06;;;;;;;10.80;9.70;;;5.00;99.90;;;;;;5056782;28;20445;-51
2023/01/15 09:06:33;;;;;;;15.47;10.70;;;5.00;99.90;;;;;;5062233;28;20475;-53
2023/01/15 09:09:00;;;;;;;14.80;12.37;;;5.10;99.90;;;;;;5059568;28;21000;-51
2023/01/15 09:11:28;;;;;;;16.77;14.93;;;5.20;99.90;;;;;;5058997;28;20465;-51
2023/01/15 09:13:55;;;;;;;14.00;10.97;;;5.20;99.90;;;;;;5060000;28;21026;-51
2023/01/15 09:16:25;;;;;;;13.53;9.30;;;5.30;99.90;;;;;;5060925;28;20520;-52
2023/01/15 09:18:52;;;;;;;22.43;16.40;;;5.30;99.90;;;;;;5056925;28;20470;-54
2023/01/15 09:21:19;;;;;;;12.10;9.30;;;5.20;99.90;;;;;;5064184;28;20482;-52
2023/01/15 09:23:46;;;;;;;14.20;9.77;;;5.30;99.90;;;;;;5061216;28;20530;-52
2023/01/15 09:26:27;;;;;;;12.33;8.83;;;5.40;99.90;;;;;;5066588;28;20530;-52
2023/01/15 09:28:55;;;;;;;11.07;8.50;;;5.40;99.90;;;;;;5063681;28;20550;-51
2023/01/15 09:31:23;;;;;;;10.93;8.40;;;5.40;99.90;;;;;;5068661;28;20546;-52
2023/01/15 09:33:50;;;;;;;8.63;7.83;;;5.40;99.90;;;;;;5070908;28;20483;-51
2023/01/15 09:36:18;;;;;;;10.47;7.40;;;5.50;99.90;;;;;;5071080;28;20632;-52
2023/01/15 09:38:45;;;;;;;9.60;6.33;;;5.50;99.90;;;;;;5070866;28;20950;-52
2023/01/15 09:42:04;;;;;;;6.90;5.63;;;5.60;99.90;;;;;;5070150;28;20531;-52
2023/01/15 09:44:12;;;;;;;8.17;6.83;;;5.70;99.90;;;;;;5067962;28;20467;-52
2023/01/15 09:46:50;;;;;;;9.17;6.10;;;5.70;99.90;;;;;;5067939;28;20535;-51
2023/01/15 09:49:28;;;;;;;5.23;4.50;;;5.80;99.90;;;;;;5066759;28;21000;-52
2023/01/15 09:52:03;;;;;;;4.40;3.80;;;6.00;99.90;;;;;;5069218;28;20523;-51
2023/01/15 09:54:49;;;;;;;4.93;3.10;;;6.00;99.90;;;;;;5048982;28;20476;-52
2023/01/15 09:57:18;;;;;;;5.40;3.57;;;6.20;99.90;;;;;;5058945;28;21039;-51
2023/01/15 09:59:48;;;;;;;7.40;3.53;;;6.20;99.90;;;;;;5051012;28;20442;-54
2023/01/15 10:02:24;;;;;;;3.30;3.00;;;6.30;99.90;;;;;;5068046;28;20484;-52
2023/01/15 10:04:55;;;;;;;3.27;2.53;;;6.50;99.90;;;;;;5068878;28;20523;-51
2023/01/15 10:07:27;;;;;;;4.43;2.70;;;6.50;99.90;;;;;;5069945;28;20460;-53
2023/01/15 10:10:00;;;;;;;3.80;2.23;;;6.50;99.90;;;;;;5070686;28;20693;-51
2023/01/15 10:12:35;;;;;;;7.20;4.63;;;6.50;99.90;;;;;;5070680;28;20483;-51
2023/01/15 10:15:15;;;;;;;6.47;5.13;;;6.50;99.90;;;;;;5062467;28;20488;-52
2023/01/15 10:17:45;;;;;;;5.60;4.10;;;6.60;99.90;;;;;;5070495;28;20545;-51
2023/01/15 10:20:17;;;;;;;5.00;3.90;;;6.70;99.90;;;;;;5070056;28;20518;-53
2023/01/15 10:23:06;;;;;;;4.03;3.60;;;6.70;99.90;;;;;;5070673;28;20523;-52
2023/01/15 10:25:42;;;;;;;4.17;2.97;;;6.80;99.90;;;;;;5055903;28;20495;-53
2023/01/15 10:28:17;;;;;;;6.70;4.83;;;6.80;99.90;;;;;;5073325;28;20468;-53
2023/01/15 10:30:48;;;;;;;4.17;3.53;;;7.10;99.90;;;;;;5072612;28;20446;-51
2023/01/15 10:33:33;;;;;;;6.17;4.60;;;7.10;99.90;;;;;;5071959;28;20494;-53
2023/01/15 10:36:06;;;;;;;3.70;3.40;;;7.00;99.90;;;;;;5057855;28;20555;-51
2023/01/15 10:38:39;;;;;;;5.00;3.60;;;7.00;99.90;;;;;;5073122;28;20500;-51
2023/01/15 10:41:30;;;;;;;4.93;4.00;;;7.00;99.90;;;;;;5074645;28;20481;-51
2023/01/15 10:44:02;;;;;;;5.13;4.63;;;7.10;99.90;;;;;;5060186;28;20671;-54
2023/01/15 10:46:36;;;;;;;4.47;3.63;;;7.00;99.90;;;;;;5075040;28;20548;-51
2023/01/15 10:49:10;;;;;;;5.57;4.43;;;7.00;99.90;;;;;;5071312;28;20464;-51
2023/01/15 10:51:42;;;;;;;5.27;4.53;;;7.10;99.90;;;;;;5071688;28;20904;-53
2023/01/15 10:54:19;;;;;;;3.77;2.90;;;7.10;99.90;;;;;;5068085;28;20879;-53
2023/01/15 10:56:55;;;;;;;4.50;3.37;;;7.10;99.90;;;;;;5068177;28;20517;-51
2023/01/15 10:59:30;;;;;;;6.40;3.70;;;7.20;99.90;;;;;;5065766;28;20437;-52
2023/01/15 11:01:59;;;;;;;4.57;3.63;;;7.20;99.90;;;;;;5060332;28;20467;-53
2023/01/15 11:04:31;;;;;;;5.00;3.77;;;7.20;99.90;;;;;;5064732;28;20535;-52
2023/01/15 11:06:59;;;;;;;6.67;5.97;;;7.40;99.90;;;;;;5068561;28;20544;-53
2023/01/15 11:09:31;;;;;;;4.70;4.20;;;7.30;99.90;;;;;;5067400;28;20444;-52
2023/01/15 11:20:33;;;;;;;3.70;3.30;;;7.50;99.90;;;;;;5068069;28;20467;-52
2023/01/15 11:23:08;;;;;;;4.90;3.10;;;7.60;99.90;;;;;;5060731;28;20866;-53
2023/01/15 11:25:38;;;;;;;3.10;2.57;;;7.60;99.90;;;;;;5061607;28;20467;-51
2023/01/15 11:28:07;;;;;;;4.30;2.60;;;7.70;99.90;;;;;;5068509;28;20488;-53
2023/01/15 11:30:36;;;;;;;3.23;2.43;;;7.80;99.90;;;;;;5057292;28;20522;-52
2023/01/15 11:33:04;;;;;;;3.20;2.87;;;7.90;99.90;;;;;;5068061;28;20469;-53
2023/01/15 11:35:34;;;;;;;3.10;2.50;;;7.80;99.90;;;;;;5069877;28;20847;-52
2023/01/15 11:38:05;;;;;;;2.93;2.47;;;8.00;99.90;;;;;;5060591;28;20549;-52
2023/01/15 11:40:33;;;;;;;2.90;1.93;;;8.10;99.90;;;;;;5055600;28;20531;-53
2023/01/15 11:51:29;;;;;;;4.17;2.30;;;8.10;99.90;;;;;;5059843;28;20432;-51
2023/01/15 11:54:02;;;;;;;2.80;2.53;;;8.10;99.90;;;;;;5069143;28;20478;-54
2023/01/15 11:56:31;;;;;;;3.63;2.93;;;8.10;99.90;;;;;;5066546;28;20566;-52
2023/01/15 11:59:01;;;;;;;4.77;2.80;;;8.30;99.90;;;;;;5066614;28;20476;-52
2023/01/15 12:01:30;;;;;;;3.67;3.00;;;8.60;99.90;;;;;;5058324;28;20472;-52
2023/01/15 12:03:58;;;;;;;3.60;2.60;;;8.70;99.90;;;;;;5060776;28;20437;-53
2023/01/15 12:06:28;;;;;;;5.17;3.47;;;8.60;99.90;;;;;;5056605;28;20481;-53
2023/01/15 12:09:03;;;;;;;3.40;2.80;;;8.60;99.90;;;;;;5067963;28;20492;-52
2023/01/15 12:11:50;;;;;;;4.17;2.80;;;8.50;99.90;;;;;;5064822;28;20809;-52
2023/01/15 12:14:43;;;;;;;3.20;2.47;;;8.50;99.90;;;;;;5062710;28;20472;-51
2023/01/15 12:17:29;;;;;;;2.43;2.20;;;8.50;99.90;;;;;;5065328;28;20471;-53
2023/01/15 12:20:05;;;;;;;10.00;5.20;;;8.50;99.90;;;;;;5069708;28;20527;-52
2023/01/15 12:22:50;;;;;;;4.30;2.30;;;8.50;99.90;;;;;;5072323;28;20480;-54
2023/01/15 12:25:29;;;;;;;2.50;1.53;;;8.60;99.90;;;;;;5058021;28;20521;-51
2023/01/15 12:28:03;;;;;;;4.27;1.70;;;8.60;99.90;;;;;;5070778;28;20555;-53
2023/01/15 12:30:38;;;;;;;2.73;1.60;;;8.80;99.90;;;;;;5060278;28;20885;-52
2023/01/15 12:33:19;;;;;;;2.90;1.80;;;8.80;99.90;;;;;;5063024;28;20652;-52
2023/01/15 12:35:55;;;;;;;1.80;1.40;;;8.70;99.90;;;;;;5062427;28;20481;-52
2023/01/15 12:38:39;;;;;;;2.13;1.50;;;8.80;99.90;;;;;;5060552;28;20881;-51
2023/01/15 12:41:11;;;;;;;4.10;1.60;;;8.80;99.90;;;;;;5067715;28;20487;-51
2023/01/15 12:46:27;;;;;;;1.60;1.47;;;9.10;99.90;;;;;;5062215;28;20436;-52
2023/01/15 12:49:02;;;;;;;4.93;2.00;;;9.00;99.90;;;;;;5065583;28;20554;-52
2023/01/15 12:51:35;;;;;;;2.43;1.73;;;8.90;99.90;;;;;;5064001;28;20455;-52
2023/01/15 12:54:11;;;;;;;1.93;1.50;;;8.90;99.90;;;;;;5059198;28;20437;-52
2023/01/15 12:56:50;;;;;;;2.27;1.90;;;8.90;99.90;;;;;;5067073;28;20494;-51
2023/01/15 12:59:21;;;;;;;2.70;1.80;;;8.90;99.90;;;;;;5090868;22;20546;-86
2023/01/15 13:01:56;;;;;;;2.90;1.50;;;8.90;99.90;;;;;;5058848;28;20553;-87
2023/01/15 13:04:30;;;;;;;3.27;1.80;;;8.80;99.90;;;;;;5069897;28;20463;-87
2023/01/15 13:07:01;;;;;;;3.43;1.70;;;8.90;99.90;;;;;;5058051;28;20445;-87
2023/01/15 13:09:38;;;;;;;1.93;1.60;;;8.80;99.90;;;;;;5065585;28;20889;-87
2023/01/15 13:12:12;;;;;;;2.83;2.23;;;8.60;99.90;;;;;;5069537;28;20451;-87
2023/01/15 13:14:39;;;;;;;4.60;1.90;;;8.40;99.90;;;;;;5070364;28;20443;-87
2023/01/15 13:17:14;;;;;;;2.30;2.10;;;8.30;99.90;;;;;;5068273;28;20572;-86
2023/01/15 13:19:52;;;;;;;2.10;1.43;;;8.50;99.90;;;;;;5063510;28;20984;-87
2023/01/15 13:22:24;;;;;;;2.70;1.20;;;9.50;99.90;;;;;;5064571;28;20486;-86
2023/01/15 13:25:08;;;;;;;1.67;1.23;;;9.30;99.90;;;;;;5058378;28;20550;-87
2023/01/15 13:27:49;;;;;;;7.83;1.30;;;10.00;99.90;;;;;;5072141;28;20449;-87
2023/01/15 13:30:29;;;;;;;2.80;1.60;;;10.20;99.90;;;;;;5080377;28;20549;-86
2023/01/15 13:33:04;;;;;;;1.73;1.10;;;10.10;99.90;;;;;;5065850;28;20437;-88
2023/01/15 13:35:35;;;;;;;3.67;1.33;;;10.00;99.90;;;;;;5064439;28;20487;-87
2023/01/15 13:40:49;;;;;;;2.00;1.10;;;10.00;99.90;;;;;;5067835;28;20968;-51
2023/01/15 13:43:30;;;;;;;1.73;1.07;;;9.80;99.90;;;;;;5048232;28;20437;-52
2023/01/15 13:45:57;;;;;;;1.50;0.90;;;9.90;99.90;;;;;;5047065;28;20636;-52
2023/01/15 13:48:31;;;;;;;1.57;1.30;;;9.80;99.90;;;;;;5047864;28;20503;-52
2023/01/15 13:51:00;;;;;;;3.17;0.93;;;9.80;99.90;;;;;;5066734;28;20528;-52
2023/01/15 13:53:29;;;;;;;1.73;1.37;;;9.70;99.90;;;;;;5124446;22;20617;-47
2023/01/15 13:56:04;;;;;;;1.33;0.70;;;9.50;99.90;;;;;;5064400;28;20575;-48
2023/01/15 13:58:33;;;;;;;1.20;1.00;;;9.40;99.90;;;;;;5066267;28;20450;-48
2023/01/15 14:01:05;;;;;;;1.40;0.90;;;9.40;99.90;;;;;;5066586;28;20495;-49
2023/01/15 14:03:34;;;;;;;1.13;1.00;;;9.30;99.90;;;;;;5058771;28;21065;-47
2023/01/15 14:06:03;;;;;;;1.30;0.90;;;9.20;99.90;;;;;;5066516;28;20448;-48
2023/01/15 14:08:38;;;;;;;3.70;0.97;;;9.00;99.90;;;;;;5066612;28;20554;-47
2023/01/15 14:11:34;;;;;;;1.60;0.83;;;8.90;99.90;;;;;;5065705;28;21020;-47
2023/01/15 14:14:44;;;;;;;1.57;1.00;;;9.10;99.90;;;;;;5065115;28;20471;-48